Time;durP1;ratioP1;P1;durP2;ratioP2;P2;SDS_P1;SDS_P2;PMS_P1;PMS_P2;Temp;Humidity;BMP_temperature;BMP_pressure;BME280_temperature;BME280_humidity;BME280_pressure;Samples;Min_cycle;Max_cycle;Signal;HPM_P1;HPM_P2
2023/03/07 00:00:26;;;;;;;;;;;;;;;;;;102933;1346;39412;-32
2023/03/07 00:03:15;;;;;;;13.20;10.00;;;;;;;;;;102876;1331;41651;-31
2023/03/07 00:05:58;;;;;;;13.50;10.40;;;;;;;;;;102780;1331;44608;-32
2023/03/07 00:08:31;;;;;;;13.10;10.30;;;;;;;;;;102917;1328;43108;-32
2023/03/07 00:11:03;;;;;;;12.60;10.50;;;;;;;;;;103284;1327;39828;-32
2023/03/07 00:13:35;;;;;;;12.60;10.60;;;;;;;;;;103292;1327;41343;-32
2023/03/07 00:16:11;;;;;;;13.40;10.20;;;;;;;;;;103263;1327;45070;-32
2023/03/07 00:18:42;;;;;;;13.90;10.70;;;;;;;;;;103284;1327;43580;-32
2023/03/07 00:21:15;;;;;;;13.40;9.70;;;;;;;;;;103295;1327;40992;-32
2023/03/07 00:23:47;;;;;;;12.50;10.20;;;;;;;;;;103288;1327;41395;-32
2023/03/07 00:26:18;;;;;;;12.30;9.70;;;;;;;;;;103306;1328;44212;-32
2023/03/07 00:28:52;;;;;;;12.20;9.80;;;;;;;;;;103145;1328;175774;-32
2023/03/07 00:31:25;;;;;;;13.60;10.00;;;;;;;;;;103278;1328;39706;-32
2023/03/07 00:33:55;;;;;;;12.00;9.80;;;;;;;;;;103307;1328;41334;-32
2023/03/07 00:36:27;;;;;;;12.40;9.80;;;;;;;;;;103261;1327;43896;-32
2023/03/07 00:38:59;;;;;;;12.20;9.40;;;;;;;;;;103271;1328;42982;-32
2023/03/07 00:41:31;;;;;;;13.00;9.40;;;;;;;;;;103306;1327;39326;-32
2023/03/07 00:44:06;;;;;;;12.00;9.30;;;;;;;;;;103302;1328;41529;-31
2023/03/07 00:46:36;;;;;;;12.30;8.90;;;;;;;;;;103302;1328;44426;-32
2023/03/07 00:49:11;;;;;;;11.60;9.00;;;;;;;;;;103253;1328;42926;-32
2023/03/07 00:51:44;;;;;;;11.90;9.00;;;;;;;;;;103268;1328;39633;-32
2023/03/07 00:54:15;;;;;;;11.70;9.10;;;;;;;;;;103273;1328;42013;-32
2023/03/07 00:56:49;;;;;;;11.50;9.10;;;;;;;;;;103304;1328;44268;-32
2023/03/07 00:59:19;;;;;;;11.80;9.50;;;;;;;;;;103252;1328;43023;-32
2023/03/07 01:01:54;;;;;;;10.70;9.00;;;;;;;;;;103277;1328;39524;-31
2023/03/07 01:04:24;;;;;;;11.70;8.80;;;;;;;;;;103158;1327;41644;-31
2023/03/07 01:06:54;;;;;;;11.30;8.70;;;;;;;;;;103297;1328;45215;-32
2023/03/07 01:09:23;;;;;;;11.40;8.80;;;;;;;;;;103248;1328;42549;-32
2023/03/07 01:11:53;;;;;;;10.60;8.80;;;;;;;;;;103281;1328;38491;-32
2023/03/07 01:14:25;;;;;;;10.90;9.10;;;;;;;;;;103291;1328;40978;-32
2023/03/07 01:16:55;;;;;;;11.00;8.30;;;;;;;;;;103305;1328;46233;-32
2023/03/07 01:19:25;;;;;;;11.10;8.80;;;;;;;;;;103276;1328;42693;-32
2023/03/07 01:21:54;;;;;;;10.90;8.40;;;;;;;;;;103290;1328;39633;-32
2023/03/07 01:24:24;;;;;;;12.00;8.80;;;;;;;;;;103268;1331;42149;-31
2023/03/07 01:26:54;;;;;;;12.00;8.40;;;;;;;;;;103158;1328;175810;-31
2023/03/07 01:29:24;;;;;;;10.90;8.10;;;;;;;;;;103249;1328;42785;-32
2023/03/07 01:31:55;;;;;;;10.00;8.20;;;;;;;;;;103294;1328;38608;-32
2023/03/07 01:34:25;;;;;;;9.90;8.20;;;;;;;;;;103308;1328;41213;-31
2023/03/07 01:36:55;;;;;;;12.90;8.30;;;;;;;;;;103313;1327;45384;-31
2023/03/07 01:39:31;;;;;;;10.60;7.80;;;;;;;;;;103290;1328;43819;-31
2023/03/07 01:42:02;;;;;;;10.10;8.00;;;;;;;;;;103163;1344;47525;-32
2023/03/07 01:45:03;;;;;;;10.50;8.30;;;;;;;;;;103289;1328;42489;-32
2023/03/07 01:47:39;;;;;;;10.20;7.50;;;;;;;;;;103307;1328;44556;-32
2023/03/07 01:50:16;;;;;;;10.20;7.40;;;;;;;;;;103258;1327;44184;-32
2023/03/07 01:52:58;;;;;;;9.60;7.60;;;;;;;;;;103332;1327;40558;-32
2023/03/07 01:55:35;;;;;;;10.00;7.60;;;;;;;;;;103277;1327;42709;-32
2023/03/07 01:58:10;;;;;;;9.30;7.20;;;;;;;;;;103282;1328;44275;-32
2023/03/07 02:00:45;;;;;;;9.30;7.40;;;;;;;;;;103118;1328;42891;-32
2023/03/07 02:03:28;;;;;;;9.40;7.20;;;;;;;;;;102883;1331;39564;-32
2023/03/07 02:06:08;;;;;;;9.60;7.40;;;;;;;;;;102829;1341;42980;-32
2023/03/07 02:08:39;;;;;;;10.30;8.00;;;;;;;;;;102873;1331;44087;-32
2023/03/07 02:11:11;;;;;;;9.90;7.20;;;;;;;;;;103006;1328;42974;-31
2023/03/07 02:13:43;;;;;;;9.80;7.10;;;;;;;;;;103275;1327;40690;-32
2023/03/07 02:16:17;;;;;;;9.50;7.00;;;;;;;;;;103259;1328;42416;-32
2023/03/07 02:18:55;;;;;;;9.40;7.00;;;;;;;;;;103274;1327;44235;-32
2023/03/07 02:21:36;;;;;;;8.50;6.70;;;;;;;;;;103050;1332;43186;-32
2023/03/07 02:24:18;;;;;;;9.00;6.50;;;;;;;;;;102838;1338;39640;-32
2023/03/07 02:26:55;;;;;;;8.70;6.30;;;;;;;;;;102873;1331;41191;-32
2023/03/07 02:29:29;;;;;;;9.10;7.10;;;;;;;;;;102814;1331;44380;-32
2023/03/07 02:32:02;;;;;;;9.00;6.90;;;;;;;;;;103075;1327;43169;-31
2023/03/07 02:34:32;;;;;;;9.20;6.50;;;;;;;;;;103279;1327;38511;-32
2023/03/07 02:37:07;;;;;;;8.90;6.40;;;;;;;;;;103275;1327;41203;-32
2023/03/07 02:39:48;;;;;;;8.90;6.80;;;;;;;;;;103267;1328;44608;-31
2023/03/07 02:42:30;;;;;;;8.80;6.50;;;;;;;;;;103280;1328;43290;-31
2023/03/07 02:45:08;;;;;;;8.20;6.40;;;;;;;;;;103286;1328;39597;-31
2023/03/07 02:47:42;;;;;;;8.20;6.50;;;;;;;;;;103316;1327;41367;-31
2023/03/07 02:50:15;;;;;;;9.00;6.60;;;;;;;;;;103272;1327;44424;-32
2023/03/07 02:52:50;;;;;;;8.70;6.40;;;;;;;;;;103241;1337;43061;-31
2023/03/07 02:55:22;;;;;;;8.50;6.80;;;;;;;;;;103285;1328;39579;-32
2023/03/07 02:57:56;;;;;;;9.50;7.00;;;;;;;;;;103240;1327;41402;-32
2023/03/07 03:00:31;;;;;;;8.60;6.90;;;;;;;;;;103260;1327;44238;-32
2023/03/07 03:03:06;;;;;;;8.70;6.40;;;;;;;;;;103236;1327;44846;-32
2023/03/07 03:05:45;;;;;;;8.50;6.60;;;;;;;;;;103284;1327;40823;-32
2023/03/07 03:08:18;;;;;;;9.40;6.80;;;;;;;;;;103252;1327;41454;-31
2023/03/07 03:10:54;;;;;;;9.10;6.70;;;;;;;;;;103261;1327;44368;-32
2023/03/07 03:13:25;;;;;;;8.80;6.60;;;;;;;;;;103272;1327;44282;-31
2023/03/07 03:16:03;;;;;;;9.40;7.20;;;;;;;;;;103279;1328;40105;-31
2023/03/07 03:18:34;;;;;;;9.10;6.90;;;;;;;;;;103289;1337;41000;-32
2023/03/07 03:21:09;;;;;;;9.00;6.90;;;;;;;;;;103269;1328;44376;-32
2023/03/07 03:23:47;;;;;;;9.40;7.30;;;;;;;;;;103256;1327;42918;-31
2023/03/07 03:26:19;;;;;;;9.20;7.20;;;;;;;;;;103289;1327;39528;-31
2023/03/07 03:28:55;;;;;;;9.20;7.20;;;;;;;;;;103276;1337;41322;-32
2023/03/07 03:31:25;;;;;;;9.50;7.10;;;;;;;;;;103289;1327;44245;-31
2023/03/07 03:33:58;;;;;;;9.30;7.40;;;;;;;;;;103259;1327;42861;-32
2023/03/07 03:36:31;;;;;;;11.20;7.80;;;;;;;;;;103261;1327;39800;-32
2023/03/07 03:39:05;;;;;;;9.60;7.20;;;;;;;;;;103278;1327;41366;-32
2023/03/07 03:41:38;;;;;;;10.10;7.50;;;;;;;;;;103269;1328;44272;-32
2023/03/07 03:44:13;;;;;;;10.00;8.00;;;;;;;;;;102833;1331;42914;-32
2023/03/07 03:46:46;;;;;;;10.00;7.60;;;;;;;;;;102842;1331;39498;-32
2023/03/07 03:49:24;;;;;;;10.10;8.20;;;;;;;;;;102687;1331;41204;-31
2023/03/07 03:52:01;;;;;;;10.50;8.40;;;;;;;;;;102696;1331;197549;-32
2023/03/07 03:54:31;;;;;;;9.50;7.60;;;;;;;;;;103213;1327;47965;-32
2023/03/07 03:57:06;;;;;;;10.00;7.90;;;;;;;;;;103279;1334;39633;-31
2023/03/07 03:59:41;;;;;;;10.70;8.50;;;;;;;;;;103280;1327;41304;-31
2023/03/07 04:02:11;;;;;;;10.80;8.00;;;;;;;;;;103289;1327;44336;-31
2023/03/07 04:04:46;;;;;;;10.40;8.20;;;;;;;;;;103373;1327;51010;-31
2023/03/07 04:07:22;;;;;;;10.70;8.60;;;;;;;;;;103309;1328;39487;-31
2023/03/07 04:09:57;;;;;;;10.70;8.50;;;;;;;;;;103290;1328;41379;-31
2023/03/07 04:12:35;;;;;;;10.40;7.90;;;;;;;;;;103273;1327;44258;-31
2023/03/07 04:15:07;;;;;;;10.60;8.30;;;;;;;;;;102848;1331;44337;-32
2023/03/07 04:17:45;;;;;;;10.10;8.20;;;;;;;;;;102852;1333;39516;-31
2023/03/07 04:20:20;;;;;;;10.50;8.10;;;;;;;;;;102860;1340;41106;-31
2023/03/07 04:22:57;;;;;;;10.40;8.40;;;;;;;;;;102824;1332;44271;-31
2023/03/07 04:25:28;;;;;;;10.60;8.10;;;;;;;;;;103261;1336;51369;-32
2023/03/07 04:28:01;;;;;;;10.30;8.10;;;;;;;;;;103288;1327;39500;-32
2023/03/07 04:30:34;;;;;;;10.20;8.20;;;;;;;;;;103286;1327;41211;-31
2023/03/07 04:33:04;;;;;;;10.70;8.60;;;;;;;;;;103259;1328;44196;-31
2023/03/07 04:35:42;;;;;;;10.90;8.50;;;;;;;;;;103063;1327;43143;-31
2023/03/07 04:38:19;;;;;;;10.90;8.30;;;;;;;;;;102833;1332;39776;-31
2023/03/07 04:40:52;;;;;;;10.30;8.10;;;;;;;;;;102879;1331;41134;-32
2023/03/07 04:43:25;;;;;;;10.90;8.40;;;;;;;;;;102830;1331;44564;-31
2023/03/07 04:45:58;;;;;;;10.70;8.40;;;;;;;;;;103297;1327;50258;-31
2023/03/07 04:48:29;;;;;;;10.70;8.30;;;;;;;;;;103286;1328;39510;-31
2023/03/07 04:51:05;;;;;;;10.30;8.20;;;;;;;;;;103299;1327;41554;-31
2023/03/07 04:53:35;;;;;;;11.40;8.90;;;;;;;;;;103281;1328;44561;-31
2023/03/07 04:56:10;;;;;;;11.10;8.50;;;;;;;;;;102840;1331;51247;-31
2023/03/07 04:58:44;;;;;;;10.30;8.40;;;;;;;;;;102836;1331;39554;-32
2023/03/07 05:01:17;;;;;;;11.00;8.40;;;;;;;;;;102864;1331;41427;-31
2023/03/07 05:03:46;;;;;;;10.80;8.30;;;;;;;;;;102838;1331;44484;-31
2023/03/07 05:06:19;;;;;;;11.10;8.00;;;;;;;;;;103266;1328;42567;-31
2023/03/07 05:08:52;;;;;;;10.40;8.10;;;;;;;;;;103305;1327;39716;-31
2023/03/07 05:11:32;;;;;;;11.00;8.20;;;;;;;;;;103287;1328;42025;-31
2023/03/07 05:14:07;;;;;;;10.40;8.20;;;;;;;;;;103264;1328;46204;-31
2023/03/07 05:16:44;;;;;;;10.50;8.40;;;;;;;;;;103273;1327;50074;-31
2023/03/07 05:19:14;;;;;;;10.60;8.10;;;;;;;;;;103276;1328;39308;-31
2023/03/07 05:21:48;;;;;;;10.60;8.50;;;;;;;;;;103277;1328;41184;-32
2023/03/07 05:24:23;;;;;;;9.40;7.70;;;;;;;;;;103256;1328;44295;-31
2023/03/07 05:26:57;;;;;;;10.90;7.70;;;;;;;;;;103300;1327;51457;-31
2023/03/07 05:29:30;;;;;;;11.00;8.40;;;;;;;;;;103268;1328;39457;-31
2023/03/07 05:32:03;;;;;;;10.90;8.50;;;;;;;;;;103293;1328;41282;-31
2023/03/07 05:34:37;;;;;;;9.80;7.90;;;;;;;;;;103270;1327;44387;-31
2023/03/07 05:37:15;;;;;;;10.10;7.50;;;;;;;;;;103268;1328;42924;-31
2023/03/07 05:39:52;;;;;;;10.70;8.00;;;;;;;;;;103287;1328;41443;-31
2023/03/07 05:42:30;;;;;;;9.90;7.90;;;;;;;;;;103261;1328;41249;-32
2023/03/07 05:45:03;;;;;;;10.40;7.70;;;;;;;;;;103242;1328;44348;-31
2023/03/07 05:47:38;;;;;;;10.00;7.30;;;;;;;;;;103316;1328;43619;-31
2023/03/07 05:50:12;;;;;;;10.80;8.20;;;;;;;;;;103277;1328;39533;-31
2023/03/07 05:52:44;;;;;;;10.40;8.10;;;;;;;;;;103305;1328;41403;-31
2023/03/07 05:55:17;;;;;;;10.80;8.00;;;;;;;;;;103284;1327;45468;-31
2023/03/07 05:57:49;;;;;;;10.90;8.50;;;;;;;;;;103310;1328;42776;-32
2023/03/07 06:00:23;;;;;;;10.10;8.00;;;;;;;;;;103110;1327;39907;-32
2023/03/07 06:02:53;;;;;;;10.20;8.30;;;;;;;;;;103321;1327;41080;-32
2023/03/07 06:05:22;;;;;;;10.30;8.30;;;;;;;;;;103281;1327;43988;-31
2023/03/07 06:07:53;;;;;;;;;;;;;;;;;;103350;1337;42953;-31
2023/03/07 06:10:25;;;;;;;10.40;8.40;;;;;;;;;;103278;1328;38362;-32
2023/03/07 06:12:56;;;;;;;11.60;8.60;;;;;;;;;;103277;1328;41271;-31
2023/03/07 06:15:26;;;;;;;11.60;8.80;;;;;;;;;;102942;1328;402858;-32
2023/03/07 06:18:02;;;;;;;10.80;8.20;;;;;;;;;;103286;1327;50289;-32
2023/03/07 06:20:37;;;;;;;11.10;8.40;;;;;;;;;;103266;1328;39337;-32
2023/03/07 06:23:07;;;;;;;10.80;8.70;;;;;;;;;;103266;1328;41157;-32
2023/03/07 06:25:41;;;;;;;11.60;8.70;;;;;;;;;;103264;1327;44235;-32
2023/03/07 06:28:11;;;;;;;12.30;9.10;;;;;;;;;;103280;1327;49555;-32
2023/03/07 06:30:44;;;;;;;12.00;8.70;;;;;;;;;;103305;1328;39555;-31
2023/03/07 06:33:14;;;;;;;12.10;8.80;;;;;;;;;;102665;1328;896326;-32
2023/03/07 06:35:45;;;;;;;11.40;8.80;;;;;;;;;;103105;1328;43936;-31
2023/03/07 06:38:18;;;;;;;11.40;8.40;;;;;;;;;;102801;1331;50873;-32
2023/03/07 06:40:57;;;;;;;10.80;8.60;;;;;;;;;;102882;1331;39739;-32
2023/03/07 06:43:27;;;;;;;11.80;8.50;;;;;;;;;;102872;1331;43386;-32
2023/03/07 06:45:59;;;;;;;11.30;8.80;;;;;;;;;;102846;1334;45169;-32
2023/03/07 06:48:33;;;;;;;11.80;8.60;;;;;;;;;;103251;1328;43142;-32
2023/03/07 06:51:09;;;;;;;11.50;8.70;;;;;;;;;;103307;1327;39617;-32
2023/03/07 06:53:43;;;;;;;10.90;8.50;;;;;;;;;;103339;1328;41263;-32
2023/03/07 06:56:19;;;;;;;11.30;8.70;;;;;;;;;;103199;1328;175726;-32
2023/03/07 06:58:54;;;;;;;12.00;8.70;;;;;;;;;;103142;1327;175698;-32
2023/03/07 07:01:25;;;;;;;11.40;8.90;;;;;;;;;;103307;1328;41256;-33
2023/03/07 07:03:58;;;;;;;10.90;8.70;;;;;;;;;;103289;1327;41157;-32
2023/03/07 07:06:29;;;;;;;11.10;9.20;;;;;;;;;;103259;1327;45670;-32
2023/03/07 07:09:08;;;;;;;10.90;8.50;;;;;;;;;;102685;1328;175733;-32
2023/03/07 07:11:40;;;;;;;10.30;8.70;;;;;;;;;;102822;1331;39544;-32
2023/03/07 07:14:15;;;;;;;11.10;8.50;;;;;;;;;;102844;1331;41434;-32
2023/03/07 07:16:45;;;;;;;11.30;9.00;;;;;;;;;;102835;1332;44420;-32
2023/03/07 07:19:20;;;;;;;10.80;8.50;;;;;;;;;;103189;1327;42649;-32
2023/03/07 07:21:56;;;;;;;11.60;9.30;;;;;;;;;;103268;1327;39550;-32
2023/03/07 07:24:32;;;;;;;11.70;9.20;;;;;;;;;;103248;1327;41359;-32
2023/03/07 07:27:06;;;;;;;12.50;9.30;;;;;;;;;;103260;1327;45194;-32
2023/03/07 07:29:39;;;;;;;11.40;8.70;;;;;;;;;;102984;1331;48124;-32
2023/03/07 07:32:13;;;;;;;12.30;8.80;;;;;;;;;;102853;1331;39673;-32
2023/03/07 07:34:46;;;;;;;12.10;9.10;;;;;;;;;;102743;1331;177028;-32
2023/03/07 07:37:22;;;;;;;11.90;9.20;;;;;;;;;;102775;1332;44242;-32
2023/03/07 07:40:00;;;;;;;13.50;9.70;;;;;;;;;;103163;1330;50626;-32
2023/03/07 07:42:30;;;;;;;10.80;8.70;;;;;;;;;;103105;1330;39338;-31
2023/03/07 07:45:05;;;;;;;11.90;9.10;;;;;;;;;;103100;1330;42630;-32
2023/03/07 07:47:40;;;;;;;12.70;9.70;;;;;;;;;;103056;1329;44173;-32
2023/03/07 07:50:14;;;;;;;13.20;9.50;;;;;;;;;;103056;1331;49323;-31
2023/03/07 07:52:47;;;;;;;11.90;9.00;;;;;;;;;;103080;1331;39650;-32
2023/03/07 07:55:21;;;;;;;13.50;9.30;;;;;;;;;;103064;1331;41121;-32
2023/03/07 07:57:56;;;;;;;12.10;8.80;;;;;;;;;;103038;1330;44222;-31
2023/03/07 08:00:35;;;;;;;12.80;9.10;;;;;;;;;;103141;1328;49970;-32
2023/03/07 08:03:08;;;;;;;12.50;9.30;;;;;;;;;;102803;1333;39714;-32
2023/03/07 08:05:47;;;;;;;11.70;9.10;;;;;;;;;;102805;1327;41288;-32
2023/03/07 08:08:23;;;;;;;13.90;9.90;;;;;;;;;;102950;1328;44219;-32
2023/03/07 08:10:52;;;;;;;13.30;9.10;;;;;;;;;;103250;1328;42973;-31
2023/03/07 08:13:24;;;;;;;12.50;9.80;;;;;;;;;;102821;1328;38458;-32
2023/03/07 08:15:55;;;;;;;14.30;10.40;;;;;;;;;;103083;1328;41275;-32
2023/03/07 08:18:31;;;;;;;13.10;9.90;;;;;;;;;;103067;1328;44209;-33
2023/03/07 08:21:05;;;;;;;12.60;9.40;;;;;;;;;;102833;1327;51126;-32
2023/03/07 08:23:38;;;;;;;12.80;10.10;;;;;;;;;;103154;1331;39461;-33
2023/03/07 08:26:12;;;;;;;12.60;9.60;;;;;;;;;;102928;1328;41591;-33
2023/03/07 08:28:43;;;;;;;13.80;10.40;;;;;;;;;;103131;1332;44358;-33
2023/03/07 08:31:17;;;;;;;13.00;10.10;;;;;;;;;;103017;1331;43086;-32
2023/03/07 08:33:49;;;;;;;11.80;9.80;;;;;;;;;;103069;1331;39646;-32
2023/03/07 08:36:23;;;;;;;14.10;10.20;;;;;;;;;;103029;1328;42436;-32
2023/03/07 08:38:56;;;;;;;13.20;10.80;;;;;;;;;;102923;1330;44332;-33
2023/03/07 08:41:35;;;;;;;13.40;10.00;;;;;;;;;;103033;1328;48963;-33
2023/03/07 08:44:11;;;;;;;13.90;10.50;;;;;;;;;;103084;1328;39509;-33
2023/03/07 08:46:41;;;;;;;13.10;10.50;;;;;;;;;;103091;1327;41133;-33
2023/03/07 08:49:14;;;;;;;12.60;9.70;;;;;;;;;;103056;1331;44467;-33
2023/03/07 08:51:49;;;;;;;;;;;;;;;;;;103188;1331;49646;-32
2023/03/07 08:54:24;;;;;;;13.20;9.80;;;;;;;;;;103249;1327;40449;-33
2023/03/07 08:57:02;;;;;;;13.20;10.10;;;;;;;;;;103089;1331;41223;-32
2023/03/07 08:59:32;;;;;;;12.30;9.80;;;;;;;;;;103082;1327;44615;-32
2023/03/07 09:02:10;;;;;;;12.90;10.10;;;;;;;;;;102656;1330;43055;-33
2023/03/07 09:04:44;;;;;;;12.40;9.80;;;;;;;;;;102626;1334;175681;-32
2023/03/07 09:07:18;;;;;;;13.20;10.60;;;;;;;;;;102613;1334;41312;-32
2023/03/07 09:09:48;;;;;;;13.40;10.60;;;;;;;;;;102760;1334;44409;-32
2023/03/07 09:12:23;;;;;;;12.30;9.70;;;;;;;;;;103019;1327;43007;-32
2023/03/07 09:14:56;;;;;;;12.00;9.40;;;;;;;;;;103084;1328;39585;-32
2023/03/07 09:17:27;;;;;;;11.80;9.30;;;;;;;;;;103104;1331;41323;-33
2023/03/07 09:19:57;;;;;;;12.40;9.70;;;;;;;;;;103139;1331;44408;-32
2023/03/07 09:22:30;;;;;;;11.50;9.30;;;;;;;;;;102761;1334;43118;-32
2023/03/07 09:25:06;;;;;;;11.20;9.30;;;;;;;;;;102665;1337;40769;-32
2023/03/07 09:27:44;;;;;;;11.60;9.30;;;;;;;;;;102734;1332;42886;-33
2023/03/07 09:30:17;;;;;;;12.40;9.20;;;;;;;;;;102899;1328;44378;-32
2023/03/07 09:32:47;;;;;;;11.90;9.20;;;;;;;;;;102851;1328;50196;-33
2023/03/07 09:35:20;;;;;;;12.00;9.00;;;;;;;;;;103164;1328;40653;-32
2023/03/07 09:37:52;;;;;;;11.10;9.20;;;;;;;;;;102929;1328;41365;-33
2023/03/07 09:40:26;;;;;;;12.00;9.40;;;;;;;;;;103261;1327;44425;-33
2023/03/07 09:43:05;;;;;;;11.80;9.00;;;;;;;;;;102635;1333;43170;-33
2023/03/07 09:45:54;;;;;;;12.00;9.20;;;;;;;;;;102598;1334;39669;-32
2023/03/07 09:48:56;;;;;;;11.60;8.50;;;;;;;;;;102707;1334;41379;-32
2023/03/07 09:51:36;;;;;;;11.70;9.50;;;;;;;;;;102613;1333;45561;-32
2023/03/07 09:54:17;;;;;;;11.00;9.50;;;;;;;;;;102712;1334;44405;-32
2023/03/07 09:56:55;;;;;;;10.90;9.10;;;;;;;;;;102741;1347;39599;-32
2023/03/07 09:59:41;;;;;;;11.40;8.70;;;;;;;;;;102577;1334;41366;-32
2023/03/07 10:02:19;;;;;;;11.20;8.60;;;;;;;;;;102810;1331;44833;-32
2023/03/07 10:04:58;;;;;;;10.30;8.20;;;;;;;;;;102990;1331;42980;-32
2023/03/07 10:07:30;;;;;;;11.00;8.40;;;;;;;;;;102912;1329;39516;-32
2023/03/07 10:10:10;;;;;;;12.00;9.30;;;;;;;;;;102953;1331;41536;-32
2023/03/07 10:13:05;;;;;;;11.20;8.80;;;;;;;;;;102761;1334;44353;-32
2023/03/07 10:15:47;;;;;;;11.40;8.80;;;;;;;;;;102612;1333;43146;-33
2023/03/07 10:18:29;;;;;;;12.00;8.70;;;;;;;;;;102686;1335;39574;-32
2023/03/07 10:21:07;;;;;;;11.30;8.40;;;;;;;;;;102755;1334;41417;-32
2023/03/07 10:23:57;;;;;;;10.40;8.30;;;;;;;;;;103008;1330;52121;-32
2023/03/07 10:26:37;;;;;;;11.90;9.00;;;;;;;;;;102761;1331;44208;-32
2023/03/07 10:29:16;;;;;;;10.40;8.30;;;;;;;;;;103011;1331;39715;-32
2023/03/07 10:31:56;;;;;;;11.60;8.50;;;;;;;;;;102681;1331;41465;-32
2023/03/07 10:34:31;;;;;;;10.60;8.20;;;;;;;;;;102663;1334;46217;-32
2023/03/07 10:37:17;;;;;;;10.60;8.30;;;;;;;;;;102682;1333;44336;-32
2023/03/07 10:39:56;;;;;;;11.00;8.50;;;;;;;;;;102640;1334;39603;-32
2023/03/07 10:42:38;;;;;;;10.30;8.10;;;;;;;;;;102677;1331;41415;-32
2023/03/07 10:45:15;;;;;;;10.80;8.60;;;;;;;;;;102783;1331;46186;-32
2023/03/07 10:47:51;;;;;;;10.20;8.10;;;;;;;;;;102636;1333;44431;-32
2023/03/07 10:50:41;;;;;;;10.10;8.10;;;;;;;;;;102662;1333;39684;-32
2023/03/07 10:53:26;;;;;;;11.20;8.80;;;;;;;;;;103020;1327;42536;-32
2023/03/07 10:56:18;;;;;;;10.50;8.10;;;;;;;;;;103067;1331;44574;-32
2023/03/07 10:59:04;;;;;;;10.30;8.20;;;;;;;;;;103163;1327;43092;-33
2023/03/07 11:01:55;;;;;;;10.40;8.40;;;;;;;;;;103131;1328;39707;-32
2023/03/07 11:04:44;;;;;;;10.10;8.00;;;;;;;;;;102757;1334;41327;-32
2023/03/07 11:07:31;;;;;;;10.30;7.90;;;;;;;;;;102649;1332;175614;-32
2023/03/07 11:10:26;;;;;;;10.10;7.90;;;;;;;;;;102618;1334;42999;-32
2023/03/07 11:13:11;;;;;;;10.00;7.70;;;;;;;;;;102865;1328;39591;-32
2023/03/07 11:15:47;;;;;;;10.70;8.20;;;;;;;;;;103192;1328;41586;-32
2023/03/07 11:18:31;;;;;;;9.50;7.50;;;;;;;;;;103037;1328;45433;-33
2023/03/07 11:21:30;;;;;;;10.70;8.10;;;;;;;;;;103159;1327;43124;-32
2023/03/07 11:24:06;;;;;;;;;;;;;;;;;;102934;1337;39855;-32
2023/03/07 11:26:41;;;;;;;9.30;7.50;;;;;;;;;;102811;1331;42658;-32
2023/03/07 11:29:16;;;;;;;10.60;8.40;;;;;;;;;;102587;1336;44289;-32
2023/03/07 11:32:04;;;;;;;9.70;7.90;;;;;;;;;;102753;1333;42976;-33
2023/03/07 11:34:43;;;;;;;10.50;8.40;;;;;;;;;;103109;1327;39775;-32
2023/03/07 11:37:28;;;;;;;12.00;8.90;;;;;;;;;;102886;1331;41125;-32
2023/03/07 11:40:21;;;;;;;9.90;8.00;;;;;;;;;;102421;1327;895594;-32
2023/03/07 11:43:05;;;;;;;11.20;8.50;;;;;;;;;;103176;1327;42943;-32
2023/03/07 11:45:47;;;;;;;11.70;8.50;;;;;;;;;;102797;1331;175637;-32
2023/03/07 11:48:37;;;;;;;10.20;8.00;;;;;;;;;;103164;1328;41415;-34
2023/03/07 11:51:36;;;;;;;9.80;8.30;;;;;;;;;;103114;1331;44322;-32
2023/03/07 11:54:20;;;;;;;11.00;8.30;;;;;;;;;;103081;1331;43013;-33
2023/03/07 11:56:56;;;;;;;10.20;8.40;;;;;;;;;;102697;1332;40531;-33
2023/03/07 12:00:34;;;;;;;10.40;8.30;;;;;;;;;;102461;1337;175661;-33
2023/03/07 12:03:57;;;;;;;10.00;8.40;;;;;;;;;;101976;1343;44505;-33
2023/03/07 12:06:37;;;;;;;9.90;7.90;;;;;;;;;;102408;1336;50947;-32
2023/03/07 12:09:28;;;;;;;11.30;8.60;;;;;;;;;;103169;1327;39483;-30
2023/03/07 12:12:23;;;;;;;10.00;8.00;;;;;;;;;;103115;1328;41102;-33
2023/03/07 12:15:14;;;;;;;9.70;7.70;;;;;;;;;;103006;1327;45373;-32
2023/03/07 12:18:04;;;;;;;10.50;8.20;;;;;;;;;;102636;1334;42881;-32
2023/03/07 12:20:44;;;;;;;10.50;8.50;;;;;;;;;;103086;1328;39343;-32
2023/03/07 12:23:24;;;;;;;9.80;8.40;;;;;;;;;;102828;1334;41210;-32
2023/03/07 12:25:58;;;;;;;9.90;7.90;;;;;;;;;;103085;1327;45274;-31
2023/03/07 12:28:35;;;;;;;9.90;8.30;;;;;;;;;;103196;1327;42617;-32
2023/03/07 12:31:16;;;;;;;10.00;8.10;;;;;;;;;;103258;1328;39297;-32
2023/03/07 12:33:56;;;;;;;9.80;7.80;;;;;;;;;;103053;1331;40953;-32
2023/03/07 12:36:33;;;;;;;9.40;7.70;;;;;;;;;;102926;1328;45192;-32
2023/03/07 12:39:22;;;;;;;9.50;7.60;;;;;;;;;;102812;1331;44090;-32
2023/03/07 12:42:03;;;;;;;9.60;7.80;;;;;;;;;;102686;1332;41391;-32
2023/03/07 12:44:42;;;;;;;9.80;7.60;;;;;;;;;;102670;1334;41307;-32
2023/03/07 12:47:27;;;;;;;8.80;7.50;;;;;;;;;;103121;1328;44762;-32
2023/03/07 12:50:10;;;;;;;9.30;7.80;;;;;;;;;;102799;1333;42530;-32
2023/03/07 12:52:47;;;;;;;9.00;7.50;;;;;;;;;;102932;1328;39526;-32
2023/03/07 12:55:26;;;;;;;9.20;7.60;;;;;;;;;;102902;1331;41316;-32
2023/03/07 12:58:12;;;;;;;9.00;7.40;;;;;;;;;;103198;1328;44152;-32
2023/03/07 13:00:50;;;;;;;9.80;7.90;;;;;;;;;;103217;1328;43174;-32
2023/03/07 13:03:30;;;;;;;10.10;7.50;;;;;;;;;;102785;1331;40960;-32
2023/03/07 13:06:06;;;;;;;9.50;7.50;;;;;;;;;;102688;1333;41247;-32
2023/03/07 13:08:42;;;;;;;8.60;7.40;;;;;;;;;;102951;1337;45441;-32
2023/03/07 13:11:20;;;;;;;8.70;7.30;;;;;;;;;;103221;1328;42908;-32
2023/03/07 13:14:01;;;;;;;9.20;7.90;;;;;;;;;;103140;1331;39347;-32
2023/03/07 13:16:40;;;;;;;9.00;7.20;;;;;;;;;;102921;1331;41191;-32
2023/03/07 13:19:54;;;;;;;8.80;7.00;;;;;;;;;;102608;1334;44485;-32
2023/03/07 13:23:02;;;;;;;8.20;7.30;;;;;;;;;;102601;1334;43206;-32
2023/03/07 13:26:03;;;;;;;9.80;7.20;;;;;;;;;;102744;1334;40878;-32
2023/03/07 13:28:50;;;;;;;8.20;6.90;;;;;;;;;;102905;1330;46220;-32
2023/03/07 13:31:42;;;;;;;9.60;7.40;;;;;;;;;;103019;1328;46907;-32
2023/03/07 13:34:50;;;;;;;8.60;7.00;;;;;;;;;;102609;1334;43821;-32
2023/03/07 13:37:50;;;;;;;8.90;6.90;;;;;;;;;;102929;1328;39592;-32
2023/03/07 13:40:52;;;;;;;9.00;7.00;;;;;;;;;;102571;1329;41707;-32
2023/03/07 13:44:02;;;;;;;8.00;6.70;;;;;;;;;;103131;1328;44343;-32
2023/03/07 13:47:04;;;;;;;8.90;6.80;;;;;;;;;;103155;1328;42976;-32
2023/03/07 13:49:47;;;;;;;7.80;6.30;;;;;;;;;;103108;1329;45259;-31
2023/03/07 13:52:43;;;;;;;9.30;6.90;;;;;;;;;;103108;1331;42499;-32
2023/03/07 13:55:45;;;;;;;8.90;7.00;;;;;;;;;;103283;1328;44241;-32
2023/03/07 13:58:27;;;;;;;8.70;6.80;;;;;;;;;;102953;1328;43022;-32
2023/03/07 14:01:04;;;;;;;8.80;6.90;;;;;;;;;;102909;1331;39748;-31
2023/03/07 14:03:39;;;;;;;8.90;6.90;;;;;;;;;;102591;1331;41346;-31
2023/03/07 14:06:18;;;;;;;7.80;6.50;;;;;;;;;;102725;1337;44364;-33
2023/03/07 14:08:49;;;;;;;8.50;6.80;;;;;;;;;;103062;1327;45014;-33
2023/03/07 14:11:24;;;;;;;;;;;;;;;;;;103272;1328;40721;-32
2023/03/07 14:14:22;;;;;;;8.50;6.60;;;;;;;;;;103090;1337;42434;-32
2023/03/07 14:17:05;;;;;;;8.00;6.30;;;;;;;;;;103016;1327;44489;-32
2023/03/07 14:19:54;;;;;;;8.40;6.60;;;;;;;;;;102721;1331;43064;-32
2023/03/07 14:22:44;;;;;;;8.10;6.40;;;;;;;;;;102670;1334;39669;-32
2023/03/07 14:25:22;;;;;;;8.10;6.20;;;;;;;;;;102648;1334;40978;-32
2023/03/07 14:27:57;;;;;;;9.00;6.20;;;;;;;;;;102611;1334;44258;-32
2023/03/07 14:30:30;;;;;;;8.00;6.20;;;;;;;;;;103136;1331;50301;-32
2023/03/07 14:33:03;;;;;;;7.40;6.00;;;;;;;;;;102881;1333;39501;-32
2023/03/07 14:35:44;;;;;;;7.90;6.20;;;;;;;;;;102809;1334;41325;-33
2023/03/07 14:38:20;;;;;;;8.40;6.50;;;;;;;;;;103179;1328;44277;-32
2023/03/07 14:41:18;;;;;;;8.10;6.00;;;;;;;;;;103005;1331;175683;-32
2023/03/07 14:44:01;;;;;;;7.70;6.00;;;;;;;;;;102935;1329;39582;-32
2023/03/07 14:46:51;;;;;;;9.00;6.00;;;;;;;;;;102834;1331;175320;-32
2023/03/07 14:49:35;;;;;;;7.60;6.00;;;;;;;;;;102964;1328;44228;-31
2023/03/07 14:52:15;;;;;;;7.10;5.70;;;;;;;;;;102849;1328;43107;-31
2023/03/07 14:55:06;;;;;;;7.10;5.80;;;;;;;;;;102980;1327;39700;-31
2023/03/07 14:57:42;;;;;;;7.40;5.90;;;;;;;;;;102826;1334;41276;-31
2023/03/07 15:00:25;;;;;;;7.90;5.80;;;;;;;;;;103081;1328;46815;-31
2023/03/07 15:03:06;;;;;;;7.10;5.50;;;;;;;;;;103215;1327;42830;-31
2023/03/07 15:05:49;;;;;;;8.60;5.90;;;;;;;;;;103132;1328;41883;-32
2023/03/07 15:08:23;;;;;;;7.40;5.90;;;;;;;;;;103208;1328;41406;-32
2023/03/07 15:11:01;;;;;;;8.20;5.80;;;;;;;;;;102927;1331;44251;-32
2023/03/07 15:13:41;;;;;;;8.00;6.00;;;;;;;;;;102828;1331;42988;-31
2023/03/07 15:16:17;;;;;;;;;;;;;;;;;;102789;1347;39421;-31
2023/03/07 15:18:50;;;;;;;7.10;5.50;;;;;;;;;;102993;1331;41381;-31
2023/03/07 15:21:25;;;;;;;7.00;5.70;;;;;;;;;;102926;1329;44437;-31